Terminal Aerodrome Forecast
Issued by NWS

Home | Current Version | Previous Version | Graphics & Text | Print | Product List | Glossary On
Versions: 1 2 3 4 5 6 7 8 9 10 11 12 13 14 15
000
FTUS43 KBIS 270522
TAFJMS
TAF
KJMS 270522Z 2706/2806 14008KT P6SM SCT035
      TEMPO 2711/2714 5SM BR
     FM271600 15015KT P6SM SCT100
     FM272000 16020G28KT P6SM SCT035 SCT120
     FM280400 15018KT P6SM VCTS BKN060CB BKN100=

USA.gov is the U.S. government's official web portal to all federal, state and local government web resources and services.